METAR AND TAF INFORMATION
METAR FOR LIEE
ADDS - METARS form results

(2312 UTC 22 May 2018)
Data provider http://aviationweather.gov/adds/metars/
 
METAR text: LIEE 222250Z 32007KT 9999 FEW030 16/14 Q1016
Conditions at: LIEE (CAGLIARI/ELMAS(A, IT) observed 2250 UTC 22 May 2018
Temperature: 16.0°C (61°F)
Dewpoint: 14.0°C (57°F) [RH = 88%]
Pressure (altimeter): 30.00 inches Hg (1016.0 mb)
Winds: from the NW (320 degrees) at 8 MPH (7 knots; 3.6 m/s)
Visibility: 6 or more miles (10+ km)
Ceiling: at least 12,000 feet AGL
Clouds: few clouds at 3000 feet AGL
Weather: no significant weather observed at this time

METAR text: LIEE 222220Z 34006KT 9999 FEW030 16/14 Q1016
Conditions at: LIEE (CAGLIARI/ELMAS(A, IT) observed 2220 UTC 22 May 2018
Temperature: 16.0°C (61°F)
Dewpoint: 14.0°C (57°F) [RH = 88%]
Pressure (altimeter): 30.00 inches Hg (1016.0 mb)
Winds: from the NNW (340 degrees) at 7 MPH (6 knots; 3.1 m/s)
Visibility: 6 or more miles (10+ km)
Ceiling: at least 12,000 feet AGL
Clouds: few clouds at 3000 feet AGL
Weather: no significant weather observed at this time

Forecast for: LIEE (CAGLIARI/ELMAS(A, IT)
Text: TAF LIEE 221700Z 2218/2318 33010KT 9999 SCT030
Forecast period: 1800 UTC 22 May 2018 to 1800 UTC 23 May 2018
Forecast type: FROM: standard forecast or significant change
Winds: from the NNW (330 degrees) at 12 MPH (10 knots; 5.2 m/s)
Visibility: 6 or more miles (10+ km)
Clouds: scattered clouds at 3000 feet AGL
Weather: no significant weather forecast for this period
Forecast for: LIEE (CAGLIARI/ELMAS(A, IT)
Text: TAF LIEE 221700Z 2218/2318 33010KT 9999 SCT030
Forecast period: 1800 UTC 22 May 2018 to 1800 UTC 23 May 2018
Forecast type: FROM: standard forecast or significant change
Winds: from the NNW (330 degrees) at 12 MPH (10 knots; 5.2 m/s)
Visibility: 6 or more miles (10+ km)
Clouds: scattered clouds at 3000 feet AGL
Weather: no significant weather forecast for this period

 AIRPORT MAP

 RUNWAY INFORMATION
Runway 14 Runway length 9196 ft Runway width 148 ft
Runway elevation 9 ft Runway displaced threshold 0 ft Runway heading 138
Runway 32 Runway length 9196 ft Runway width 148 ft
Runway elevation 4 ft Runway displaced threshold 0 ft Runway heading 318

 AIRPORT FREQUENCIES
Type APP Name CAGLIARI A Frequency 118.75 MHZ
Type GND Name Elmas GND Frequency 125.425 MHZ
Type MISC Name SAR Frequency 123.1 MHZ
Type TWR Name TWR Frequency 120.6 MHZ

 AIRPORT NEAR NAVIGATION AIDS
Type VOR-DME Name Cagliari Frequency 113400 KHZ
Type NDB Name Cagliari Frequency 371 KHZ



Powered by Virtual Airlines Manager [v2.6.2]